Time;durP1;ratioP1;P1;durP2;ratioP2;P2;SDS_P1;SDS_P2;PMS_P1;PMS_P2;Temp;Humidity;BMP_temperature;BMP_pressure;BME280_temperature;BME280_humidity;BME280_pressure;Samples;Min_cycle;Max_cycle;Signal;HPM_P1;HPM_P2
2021/09/19 00:02:07;;;;;;;;;10.67;7.00;;;;;20.79;65.54;100869.97;4996438;28;60833;-76
2021/09/19 00:04:32;;;;;;;;;7.00;7.00;;;;;20.79;65.35;100864.59;4995259;28;46275;-76
2021/09/19 00:06:57;;;;;;;;;9.67;7.67;;;;;20.79;64.90;100867.28;4994575;28;45393;-75
2021/09/19 00:09:23;;;;;;;;;7.67;6.33;;;;;20.79;65.68;100875.34;4995046;28;46476;-75
2021/09/19 00:11:48;;;;;;;;;9.00;7.00;;;;;20.75;65.10;100861.13;4994590;28;52328;-76
2021/09/19 00:14:14;;;;;;;;;7.67;6.67;;;;;20.77;65.15;100867.31;4993935;28;45984;-76
2021/09/19 00:16:39;;;;;;;;;7.67;6.00;;;;;20.79;65.48;100868.16;4995489;28;45499;-76
2021/09/19 00:19:04;;;;;;;;;5.67;5.67;;;;;20.81;65.00;100857.38;4999746;28;46390;-76
2021/09/19 00:21:30;;;;;;;;;7.00;7.00;;;;;20.81;65.07;100858.25;4996616;28;51392;-75
2021/09/19 00:23:55;;;;;;;;;5.67;5.67;;;;;20.79;65.44;100856.53;4994953;28;51936;-76
2021/09/19 00:26:21;;;;;;;;;10.67;6.00;;;;;20.80;64.72;100853.81;5007707;28;51496;-76
2021/09/19 00:28:47;;;;;;;;;5.67;5.67;;;;;20.80;65.04;100848.44;5014535;28;56933;-75
2021/09/19 00:31:12;;;;;;;;;12.00;7.67;;;;;20.78;65.46;100836.00;5015814;28;45374;-76
2021/09/19 00:33:37;;;;;;;;;7.00;7.00;;;;;20.77;64.97;100831.53;5015138;28;50589;-76
2021/09/19 00:36:03;;;;;;;;;7.67;7.67;;;;;20.74;65.10;100835.22;5009243;28;55064;-76
2021/09/19 00:38:28;;;;;;;;;7.00;7.00;;;;;20.70;65.40;100841.59;5015541;28;47414;-75
2021/09/19 00:40:54;;;;;;;;;10.33;8.00;;;;;20.61;66.09;100837.41;5013995;28;51858;-75
2021/09/19 00:43:19;;;;;;;;;9.00;6.33;;;;;20.59;65.02;100835.69;4992551;28;57552;-76
2021/09/19 00:45:44;;;;;;;;;8.00;7.00;;;;;20.55;65.71;100837.56;5013596;28;50697;-76
2021/09/19 00:48:10;;;;;;;;;6.67;6.67;;;;;20.54;65.58;100838.50;5015259;28;59591;-76
2021/09/19 00:50:36;;;;;;;;;7.00;7.00;;;;;20.56;65.47;100830.41;5015503;28;45472;-76
2021/09/19 00:53:01;;;;;;;;;8.67;8.67;;;;;20.53;65.24;100823.34;5016084;28;45499;-76
2021/09/19 00:55:27;;;;;;;;;12.00;7.67;;;;;20.53;65.75;100822.47;5015506;28;50179;-75
2021/09/19 00:57:53;;;;;;;;;6.33;6.33;;;;;20.55;65.58;100828.63;5014771;28;47206;-76
2021/09/19 01:00:28;;;;;;;;;10.33;8.00;;;;;20.53;65.75;100825.13;5000602;28;45489;-76
2021/09/19 01:02:54;;;;;;;;;9.33;8.00;;;;;20.53;65.86;100825.13;5015145;28;45415;-76
2021/09/19 01:05:19;;;;;;;;;7.00;7.00;;;;;20.55;65.79;100834.88;5016225;28;45518;-76
2021/09/19 01:07:46;;;;;;;;;10.33;8.33;;;;;20.53;65.76;100834.06;5015330;28;45988;-76
2021/09/19 01:10:12;;;;;;;;;9.67;7.00;;;;;20.48;65.36;100827.09;5014626;28;45467;-76
2021/09/19 01:12:38;;;;;;;;;7.33;6.67;;;;;20.48;65.93;100821.72;5008643;28;45159;-76
2021/09/19 01:15:04;;;;;;;;;7.00;7.00;;;;;20.42;65.97;100826.31;5015420;28;45315;-75
2021/09/19 01:17:30;;;;;;;;;10.00;10.00;;;;;20.37;66.20;100825.56;5015388;28;45460;-76
2021/09/19 01:19:57;;;;;;;;;10.00;9.67;;;;;20.34;66.14;100824.75;5002506;28;45449;-76
2021/09/19 01:22:34;;;;;;;;;9.00;7.00;;;;;20.27;66.44;100815.16;4982402;28;45294;-76
2021/09/19 01:25:01;;;;;;;;;7.33;7.33;;;;;20.28;66.25;100822.25;5013428;28;45288;-76
2021/09/19 01:27:27;;;;;;;;;7.33;7.00;;;;;20.25;66.25;100817.00;5015168;28;46172;-75
2021/09/19 01:29:52;;;;;;;;;9.67;8.33;;;;;20.22;66.99;100819.75;5014464;28;46890;-76
2021/09/19 01:32:21;;;;;;;;;6.00;6.00;;;;;20.24;66.85;100823.28;5014818;28;55801;-75
2021/09/19 01:34:50;;;;;;;;;8.67;8.67;;;;;20.18;66.72;100810.91;5014184;28;45612;-75
2021/09/19 01:37:16;;;;;;;;;11.00;8.67;;;;;20.25;66.87;100817.00;5014643;28;46526;-76
2021/09/19 01:39:41;;;;;;;;;10.33;8.67;;;;;20.19;67.11;100809.13;5014447;28;45300;-76
2021/09/19 01:42:07;;;;;;;;;11.33;10.00;;;;;20.17;66.73;100805.63;5015485;28;45333;-75
2021/09/19 01:44:32;;;;;;;;;10.33;10.33;;;;;20.17;67.33;100803.81;5016146;28;45149;-76
2021/09/19 01:46:58;;;;;;;;;9.67;8.33;;;;;20.15;67.28;100806.53;5013835;28;45620;-76
2021/09/19 01:49:23;;;;;;;;;9.67;9.67;;;;;20.10;67.04;100796.88;5014033;28;57281;-76
2021/09/19 01:51:48;;;;;;;;;12.00;10.33;;;;;20.15;67.17;100803.84;5014808;28;58372;-76
2021/09/19 01:54:14;;;;;;;;;10.67;10.67;;;;;20.15;67.70;100811.03;5014194;28;55905;-76
2021/09/19 01:56:39;;;;;;;;;9.00;8.33;;;;;20.12;67.55;100809.31;5015684;28;47359;-75
2021/09/19 01:59:05;;;;;;;;;13.33;10.33;;;;;20.12;67.62;100798.56;5014059;28;54234;-77
2021/09/19 02:01:30;;;;;;;;;10.33;10.33;;;;;20.12;68.36;100803.06;5014930;28;45808;-76
2021/09/19 02:03:56;;;;;;;;;13.33;12.67;;;;;20.11;67.42;100802.19;5015412;28;45544;-75
2021/09/19 02:06:22;;;;;;;;;11.67;11.67;;;;;20.08;67.68;100796.94;5015615;28;46463;-76
2021/09/19 02:08:47;;;;;;;;;11.33;11.33;;;;;20.11;67.93;100815.59;5015364;28;45282;-76
2021/09/19 02:11:13;;;;;;;;;16.00;12.67;;;;;20.11;67.39;100810.22;5014626;28;45424;-76
2021/09/19 02:13:39;;;;;;;;;11.33;10.33;;;;;20.07;67.38;100805.88;5014272;28;45597;-76
2021/09/19 02:16:05;;;;;;;;;13.00;13.00;;;;;20.06;68.08;100801.44;5015810;28;47550;-76
2021/09/19 02:18:31;;;;;;;;;14.33;11.67;;;;;20.06;67.65;100806.81;5015096;28;45652;-76
2021/09/19 02:20:56;;;;;;;;;10.67;10.67;;;;;20.04;68.31;100794.38;5014005;28;45466;-76
2021/09/19 02:23:22;;;;;;;;;11.33;11.33;;;;;20.01;68.96;100800.69;4998859;28;45608;-76
2021/09/19 02:25:47;;;;;;;;;14.33;11.67;;;;;19.99;68.12;100796.31;5013961;28;47814;-75
2021/09/19 02:28:13;;;;;;;;;12.00;12.00;;;;;19.95;68.41;100794.63;5014947;28;45476;-76
2021/09/19 02:30:38;;;;;;;;;11.00;11.00;;;;;19.92;68.25;100795.63;5014247;28;45531;-76
2021/09/19 02:33:04;;;;;;;;;12.33;11.33;;;;;19.92;68.21;100789.34;5014211;28;45476;-76
2021/09/19 02:35:29;;;;;;;;;13.00;11.67;;;;;19.92;68.82;100784.88;5013263;28;62413;-75
2021/09/19 02:37:55;;;;;;;;;16.33;14.00;;;;;19.95;68.59;100783.91;5015649;28;45498;-76
2021/09/19 02:40:20;;;;;;;;;10.33;9.67;;;;;19.95;68.50;100782.09;5016941;28;55080;-76
2021/09/19 02:42:46;;;;;;;;;14.00;14.00;;;;;19.97;68.83;100785.59;5018101;28;45356;-76
2021/09/19 02:45:12;;;;;;;;;15.33;12.33;;;;;19.98;68.03;100784.72;5016699;28;46223;-75
2021/09/19 02:47:37;;;;;;;;;16.33;14.67;;;;;20.00;68.59;100782.84;5018025;28;45293;-75
2021/09/19 02:50:03;;;;;;;;;15.67;15.67;;;;;20.01;67.99;100786.41;5017154;28;45222;-76
2021/09/19 02:52:29;;;;;;;;;16.00;13.33;;;;;20.01;68.46;100778.38;5016845;28;45591;-76
2021/09/19 02:54:54;;;;;;;;;11.00;11.00;;;;;20.00;68.17;100777.50;5016116;28;61119;-75
2021/09/19 02:57:19;;;;;;;;;14.67;13.00;;;;;20.01;68.59;100768.53;4999765;28;52947;-77
2021/09/19 02:59:45;;;;;;;;;13.67;11.67;;;;;20.02;68.25;100772.94;5017904;28;50521;-76
2021/09/19 03:02:10;;;;;;;;;14.33;14.00;;;;;20.03;68.75;100772.06;5017000;28;45466;-76
2021/09/19 03:04:36;;;;;;;;;11.67;11.33;;;;;20.01;68.31;100770.31;5016513;28;61523;-76
2021/09/19 03:07:01;;;;;;;;;13.67;12.00;;;;;20.00;68.80;100756.06;5017275;28;61389;-76
2021/09/19 03:09:26;;;;;;;;;14.67;14.00;;;;;20.03;68.37;100758.66;5000045;28;45330;-75
2021/09/19 03:11:52;;;;;;;;;14.00;14.00;;;;;20.02;68.68;100761.34;5017584;28;45358;-76
2021/09/19 03:14:17;;;;;;;;;14.33;14.33;;;;;19.98;68.77;100755.22;5016453;28;59417;-75
2021/09/19 03:16:43;;;;;;;;;19.67;14.00;;;;;19.98;68.45;100763.28;5016699;28;45381;-75
2021/09/19 03:19:08;;;;;;;;;14.67;14.67;;;;;19.98;68.90;100754.34;5015509;28;51409;-76
2021/09/19 03:21:33;;;;;;;;;13.67;13.33;;;;;19.97;68.39;100755.25;5015990;28;51828;-76
2021/09/19 03:23:59;;;;;;;;;15.00;13.67;;;;;19.94;68.80;100755.34;5017259;28;46400;-76
2021/09/19 03:26:24;;;;;;;;;16.00;15.67;;;;;19.97;68.69;100752.56;5016537;28;45554;-75
2021/09/19 03:28:50;;;;;;;;;18.00;13.33;;;;;19.97;68.79;100765.97;5017299;28;45440;-76
2021/09/19 03:31:15;;;;;;;;;17.67;14.67;;;;;19.97;68.38;100764.16;5016954;28;51871;-76
2021/09/19 03:33:40;;;;;;;;;14.33;14.00;;;;;19.97;68.83;100771.31;5015920;28;53279;-76
2021/09/19 03:36:06;;;;;;;;;18.33;16.00;;;;;19.94;69.02;100766.06;5017202;28;45490;-76
2021/09/19 03:38:31;;;;;;;;;15.33;13.67;;;;;19.92;68.23;100760.78;5015951;28;45408;-75
2021/09/19 03:40:57;;;;;;;;;16.00;14.00;;;;;19.95;69.03;100771.38;4999385;28;52353;-76
2021/09/19 03:43:22;;;;;;;;;14.67;14.00;;;;;19.92;68.65;100768.81;5017607;28;47404;-76
2021/09/19 03:45:47;;;;;;;;;19.67;14.67;;;;;19.93;69.00;100772.38;5002477;28;49600;-76
2021/09/19 03:48:13;;;;;;;;;17.33;15.33;;;;;19.91;69.02;100766.16;5017636;28;47252;-77
2021/09/19 03:50:38;;;;;;;;;16.33;15.00;;;;;19.83;69.13;100758.34;5016355;28;47742;-75
2021/09/19 03:53:04;;;;;;;;;15.00;14.00;;;;;19.84;68.59;100765.47;5015976;28;47430;-76
2021/09/19 03:55:29;;;;;;;;;17.33;16.00;;;;;19.84;68.79;100768.13;5016750;28;45168;-75
2021/09/19 03:57:55;;;;;;;;;14.33;13.67;;;;;19.83;68.43;100769.94;5016403;28;51796;-75
2021/09/19 04:00:20;;;;;;;;;14.00;14.00;;;;;19.81;68.32;100773.56;5017008;28;45397;-75
2021/09/19 04:02:45;;;;;;;;;11.33;11.33;;;;;19.82;68.71;100770.00;5016558;28;59770;-75
2021/09/19 04:05:11;;;;;;;;;16.33;16.33;;;;;19.78;69.10;100755.78;5016430;28;45393;-76
2021/09/19 04:07:37;;;;;;;;;11.33;11.33;;;;;19.78;68.82;100760.28;5016751;28;45609;-76
2021/09/19 04:10:03;;;;;;;;;16.67;15.00;;;;;19.78;68.70;100763.81;4998121;28;45523;-75
2021/09/19 04:12:29;;;;;;;;;18.00;17.00;;;;;19.77;68.75;100766.56;5022508;28;46538;-76
2021/09/19 04:14:54;;;;;;;;;13.67;13.00;;;;;19.76;67.92;100765.69;5016061;28;58107;-76
2021/09/19 04:17:19;;;;;;;;;17.67;14.67;;;;;19.75;68.05;100761.22;5016324;28;45296;-76
2021/09/19 04:19:45;;;;;;;;;13.67;13.67;;;;;19.75;67.77;100763.03;5015854;28;57124;-76
2021/09/19 04:22:10;;;;;;;;;13.67;13.67;;;;;19.70;67.10;100752.44;5014840;28;60524;-76
2021/09/19 04:24:36;;;;;;;;;12.33;11.33;;;;;19.71;67.45;100758.66;5009547;28;45551;-75
2021/09/19 04:27:01;;;;;;;;;14.00;13.00;;;;;19.69;66.99;100753.38;5016210;28;45415;-76
2021/09/19 04:29:26;;;;;;;;;15.33;14.00;;;;;19.65;66.73;100754.34;5016152;28;45480;-75
2021/09/19 04:31:52;;;;;;;;;15.00;14.00;;;;;19.63;66.36;100761.56;5015158;28;56818;-75
2021/09/19 04:34:17;;;;;;;;;17.00;13.67;;;;;19.63;66.16;100770.47;5015043;28;57525;-76
2021/09/19 04:36:43;;;;;;;;;12.00;12.00;;;;;19.61;66.24;100768.78;5015903;28;45735;-75
2021/09/19 04:39:08;;;;;;;;;14.67;12.00;;;;;19.59;65.64;100771.47;5016205;28;54862;-76
2021/09/19 04:41:34;;;;;;;;;13.00;12.67;;;;;19.53;65.80;100766.25;5015763;28;47301;-76
2021/09/19 04:43:59;;;;;;;;;14.00;13.33;;;;;19.52;66.01;100772.53;5016241;28;45475;-76
2021/09/19 04:46:24;;;;;;;;;16.67;15.00;;;;;19.52;65.38;100779.69;5015989;28;55226;-76
2021/09/19 04:48:54;;;;;;;;;13.00;11.33;;;;;19.49;65.77;100782.44;5014983;28;52353;-75
2021/09/19 04:51:19;;;;;;;;;13.00;13.00;;;;;19.45;65.52;100780.78;5016148;28;46659;-75
2021/09/19 04:53:45;;;;;;;;;15.67;14.67;;;;;19.42;65.43;100783.53;5015294;28;45583;-77
2021/09/19 04:56:10;;;;;;;;;15.00;13.00;;;;;19.39;65.18;100784.50;5016003;28;45863;-76
2021/09/19 04:58:35;;;;;;;;;15.33;13.00;;;;;19.34;65.57;100789.97;5016042;28;45270;-76
2021/09/19 05:01:01;;;;;;;;;15.33;13.00;;;;;19.29;65.64;100791.91;5013654;28;61590;-76
2021/09/19 05:03:26;;;;;;;;;16.00;13.00;;;;;19.28;65.51;100798.19;5015641;28;45412;-75
2021/09/19 05:05:52;;;;;;;;;14.00;14.00;;;;;19.27;65.56;100806.22;5014770;28;45297;-76
2021/09/19 05:08:17;;;;;;;;;14.00;14.00;;;;;19.25;65.43;100810.75;5015736;28;45404;-75
2021/09/19 05:10:43;;;;;;;;;15.00;13.67;;;;;19.23;65.15;100804.53;5015399;28;45360;-75
2021/09/19 05:13:08;;;;;;;;;14.67;12.67;;;;;19.21;65.28;100806.38;5014587;28;57193;-75
2021/09/19 05:15:33;;;;;;;;;12.33;12.33;;;;;19.20;65.55;100808.19;5015634;28;51136;-75
2021/09/19 05:17:59;;;;;;;;;16.33;13.00;;;;;19.17;64.92;100810.91;5015347;28;53187;-75
2021/09/19 05:20:24;;;;;;;;;14.00;13.67;;;;;19.14;65.12;100794.09;5015424;28;63329;-76
2021/09/19 05:22:50;;;;;;;;;14.33;14.33;;;;;19.13;64.91;100806.59;5014234;28;45340;-76
2021/09/19 05:25:15;;;;;;;;;12.00;12.00;;;;;19.11;65.11;100795.91;5014148;28;45522;-75
2021/09/19 05:27:41;;;;;;;;;18.67;14.00;;;;;19.12;65.31;100807.47;5013590;28;48540;-75
2021/09/19 05:30:06;;;;;;;;;13.33;12.00;;;;;19.09;64.78;100796.88;5014202;28;61029;-76
2021/09/19 05:32:32;;;;;;;;;13.00;12.00;;;;;19.09;65.00;100800.41;5014848;28;45467;-76
2021/09/19 05:34:57;;;;;;;;;11.33;11.33;;;;;19.09;65.24;100803.09;5014753;28;50523;-75
2021/09/19 05:37:22;;;;;;;;;15.00;15.00;;;;;19.09;65.29;100804.91;5014629;28;53338;-75
2021/09/19 05:39:48;;;;;;;;;11.67;11.67;;;;;19.08;64.79;100805.81;5013933;28;61995;-75
2021/09/19 05:42:13;;;;;;;;;16.33;15.33;;;;;19.07;64.63;100798.72;5015695;28;56118;-75
2021/09/19 05:44:38;;;;;;;;;16.00;13.00;;;;;19.05;64.58;100806.75;5014731;28;52691;-75
2021/09/19 05:47:04;;;;;;;;;14.67;12.67;;;;;19.04;64.58;100812.16;5014939;28;50963;-76
2021/09/19 05:49:29;;;;;;;;;15.00;15.00;;;;;19.05;64.41;100821.94;5014661;28;46435;-75
2021/09/19 05:51:55;;;;;;;;;15.00;14.00;;;;;19.04;64.35;100815.72;5014150;28;45441;-75
2021/09/19 05:54:20;;;;;;;;;16.67;15.33;;;;;19.04;64.59;100821.06;5014442;28;50371;-75
2021/09/19 05:56:45;;;;;;;;;11.67;11.67;;;;;19.04;64.68;100814.84;5013186;28;45727;-76
2021/09/19 05:59:11;;;;;;;;;17.33;13.33;;;;;19.01;64.09;100812.22;5014898;28;52053;-76
2021/09/19 06:01:36;;;;;;;;;12.67;12.33;;;;;19.04;64.39;100814.84;5014315;28;58863;-76
2021/09/19 06:04:02;;;;;;;;;15.00;14.00;;;;;19.04;64.37;100818.38;5014382;28;53787;-76
2021/09/19 06:06:27;;;;;;;;;16.00;14.33;;;;;19.06;64.35;100826.38;5015368;28;45317;-76
2021/09/19 06:08:52;;;;;;;;;17.67;14.00;;;;;19.09;64.20;100828.97;5014146;28;55077;-75
2021/09/19 06:11:18;;;;;;;;;12.00;12.00;;;;;19.10;64.42;100830.75;5014515;28;46286;-76
2021/09/19 06:13:43;;;;;;;;;16.67;13.33;;;;;19.14;64.43;100831.56;5018144;28;47862;-76
2021/09/19 06:16:08;;;;;;;;;20.67;14.00;;;;;19.16;64.17;100837.75;5017514;28;47955;-76
2021/09/19 06:18:34;;;;;;;;;13.67;13.00;;;;;19.18;64.35;100842.16;5017028;28;58414;-77
2021/09/19 06:21:00;;;;;;;;;16.33;15.00;;;;;19.18;64.08;100842.16;5018121;28;45476;-76
2021/09/19 06:23:26;;;;;;;;;12.33;11.33;;;;;19.24;64.03;100850.03;5015735;28;45514;-76
2021/09/19 06:25:52;;;;;;;;;12.33;12.00;;;;;19.26;63.62;100840.16;5018503;28;45514;-75
2021/09/19 06:28:18;;;;;;;;;13.33;13.33;;;;;19.25;63.78;100834.84;5017692;28;47321;-75
2021/09/19 06:30:43;;;;;;;;;12.67;12.67;;;;;19.31;63.82;100840.91;5018039;28;45343;-76
2021/09/19 06:33:09;;;;;;;;;15.00;14.00;;;;;19.35;63.25;100839.06;5017453;28;50084;-75
2021/09/19 06:35:34;;;;;;;;;14.33;14.33;;;;;19.37;62.99;100840.75;5015597;28;45500;-75
2021/09/19 06:37:59;;;;;;;;;13.00;11.00;;;;;19.39;62.91;100832.72;5017299;28;53885;-75
2021/09/19 06:40:25;;;;;;;;;16.33;13.67;;;;;19.45;63.06;100840.59;5017169;28;58914;-76
2021/09/19 06:42:50;;;;;;;;;15.00;12.33;;;;;19.45;63.36;100837.03;5016854;28;56128;-76
2021/09/19 06:45:16;;;;;;;;;16.33;11.00;;;;;19.49;62.75;100833.34;5018338;28;45321;-76
2021/09/19 06:47:41;;;;;;;;;12.33;10.67;;;;;19.50;62.65;100829.75;5017341;28;61922;-77
2021/09/19 06:50:08;;;;;;;;;14.67;13.00;;;;;19.52;62.51;100833.25;5000840;28;45455;-78
2021/09/19 06:52:33;;;;;;;;;17.67;12.00;;;;;19.53;62.76;100840.38;5017423;28;45317;-78
2021/09/19 06:54:59;;;;;;;;;12.33;12.33;;;;;19.53;62.58;100838.56;5017747;28;45418;-77
2021/09/19 06:57:24;;;;;;;;;14.67;14.00;;;;;19.53;62.58;100832.34;5014313;28;60613;-77
2021/09/19 06:59:50;;;;;;;;;14.00;12.00;;;;;19.54;62.55;100834.97;4990723;28;46031;-76
2021/09/19 07:02:15;;;;;;;;;15.00;15.00;;;;;19.56;62.33;100837.63;5016858;28;51043;-75
2021/09/19 07:04:40;;;;;;;;;17.00;12.00;;;;;19.57;61.96;100850.97;5014845;28;49483;-77
2021/09/19 07:07:06;;;;;;;;;12.33;12.00;;;;;19.58;62.44;100850.06;5011826;28;47229;-76
2021/09/19 07:09:31;;;;;;;;;11.00;11.00;;;;;19.61;61.95;100858.06;5014426;28;45285;-76
2021/09/19 07:11:57;;;;;;;;;15.33;14.00;;;;;19.64;61.78;100862.44;5011333;28;45447;-77
2021/09/19 07:14:22;;;;;;;;;16.00;12.33;;;;;19.67;62.21;100869.53;5016747;28;45630;-76
2021/09/19 07:16:47;;;;;;;;;14.33;13.67;;;;;19.69;61.73;100871.22;5016448;28;56611;-76
2021/09/19 07:19:13;;;;;;;;;15.00;13.33;;;;;19.72;61.28;100876.53;5023782;28;45446;-79
2021/09/19 07:21:38;;;;;;;;;13.00;13.00;;;;;19.75;62.00;100872.88;5018102;28;54470;-77
2021/09/19 07:24:04;;;;;;;;;13.00;13.00;;;;;19.82;61.48;100879.84;5016518;28;45518;-77
2021/09/19 07:26:29;;;;;;;;;16.00;16.00;;;;;19.88;61.26;100879.69;5116886;22;47950;-78
2021/09/19 07:28:55;;;;;;;;;14.00;12.67;;;;;19.90;60.97;100877.84;4999242;28;56479;-77
2021/09/19 07:31:20;;;;;;;;;12.33;11.00;;;;;19.92;61.02;100878.69;5012354;28;45409;-75
2021/09/19 07:33:46;;;;;;;;;13.00;13.00;;;;;19.95;60.84;100886.63;5006669;28;46572;-75
2021/09/19 07:36:11;;;;;;;;;15.00;15.00;;;;;19.96;60.76;100883.03;5011195;28;47434;-75
2021/09/19 07:38:37;;;;;;;;;17.33;16.33;;;;;20.00;60.73;100886.50;4997564;28;45732;-78
2021/09/19 07:41:03;;;;;;;;;19.67;15.00;;;;;20.03;60.70;100887.31;4994427;28;45510;-76
2021/09/19 07:43:28;;;;;;;;;15.67;14.67;;;;;20.04;60.53;100880.16;5019986;28;45586;-76
2021/09/19 07:45:55;;;;;;;;;13.67;13.33;;;;;20.06;60.68;100884.53;4992566;28;47977;-78
2021/09/19 07:48:21;;;;;;;;;14.00;14.00;;;;;20.11;60.81;100887.09;5017128;28;45473;-77
2021/09/19 07:50:47;;;;;;;;;18.00;18.00;;;;;20.13;60.35;100899.56;5015308;28;45365;-75
2021/09/19 07:53:12;;;;;;;;;17.33;15.67;;;;;20.13;60.26;100895.97;5016916;28;45460;-75
2021/09/19 07:55:38;;;;;;;;;17.33;13.67;;;;;20.09;60.05;100888.94;4994991;28;48371;-76
2021/09/19 07:58:03;;;;;;;;;17.67;16.00;;;;;20.07;59.61;100888.09;4988408;28;45468;-76
2021/09/19 08:00:28;;;;;;;;;15.00;15.00;;;;;20.13;60.29;100912.97;5004148;28;45988;-75
2021/09/19 08:02:54;;;;;;;;;16.00;15.33;;;;;20.15;60.15;100919.16;5021483;28;45343;-75
2021/09/19 08:05:20;;;;;;;;;16.67;13.67;;;;;20.19;60.26;100919.03;5016357;28;55608;-77
2021/09/19 08:07:46;;;;;;;;;13.33;13.33;;;;;20.22;60.20;100927.91;4998173;28;45534;-75
2021/09/19 08:10:12;;;;;;;;;14.00;14.00;;;;;20.24;59.48;100926.06;5016145;28;53129;-76
2021/09/19 08:12:37;;;;;;;;;13.67;13.67;;;;;20.25;59.25;100927.81;5015305;28;45886;-75
2021/09/19 08:15:03;;;;;;;;;15.00;14.00;;;;;20.26;59.25;100915.28;5011242;28;45523;-77
2021/09/19 08:17:28;;;;;;;;;20.67;16.33;;;;;20.33;59.51;100923.09;5012557;28;45595;-78
2021/09/19 08:19:54;;;;;;;;;16.67;15.67;;;;;20.36;59.39;100920.34;5015684;28;51015;-73
2021/09/19 08:22:19;;;;;;;;;19.67;17.00;;;;;20.37;59.28;100922.09;5010188;28;53534;-75
2021/09/19 08:24:44;;;;;;;;;19.67;19.67;;;;;20.37;59.77;100919.44;5014829;28;46229;-74
2021/09/19 08:27:10;;;;;;;;;17.67;17.33;;;;;20.36;59.27;100924.84;5015494;28;51012;-74
2021/09/19 08:29:35;;;;;;;;;21.33;15.00;;;;;20.33;58.88;100930.28;5016151;28;45405;-74
2021/09/19 08:32:01;;;;;;;;;22.00;17.33;;;;;20.32;59.44;100932.09;5016118;28;45412;-74
2021/09/19 08:34:27;;;;;;;;;19.33;19.00;;;;;20.29;59.06;100929.47;4992236;28;45468;-74
2021/09/19 08:36:52;;;;;;;;;16.00;14.67;;;;;20.23;59.23;100943.06;5015171;28;56518;-74
2021/09/19 08:39:17;;;;;;;;;18.67;15.67;;;;;20.21;59.58;100942.22;5008312;28;49406;-74
2021/09/19 08:41:43;;;;;;;;;17.00;15.67;;;;;20.21;59.00;100947.59;5016652;28;45552;-74
2021/09/19 08:44:09;;;;;;;;;4.00;2.67;;;;;20.15;59.91;100948.63;5015571;28;47568;-74
2021/09/19 08:46:35;;;;;;;;;19.00;16.33;;;;;20.17;59.81;100956.63;5016884;28;45532;-75
2021/09/19 08:49:00;;;;;;;;;18.00;16.67;;;;;20.12;59.41;100962.09;5000855;28;46016;-75
2021/09/19 08:51:26;;;;;;;;;19.00;17.00;;;;;20.08;59.47;100970.25;4999142;28;45453;-74
2021/09/19 08:53:51;;;;;;;;;16.33;16.33;;;;;20.06;59.47;100964.06;5016195;28;59368;-75
2021/09/19 08:56:23;;;;;;;;;13.67;13.67;;;;;20.04;59.65;100969.50;5015643;28;45286;-74
2021/09/19 08:58:50;;;;;;;;;17.33;16.00;;;;;20.02;59.43;100975.78;5016341;28;45466;-74
2021/09/19 09:01:15;;;;;;;;;16.67;14.33;;;;;20.01;60.08;100968.69;5015871;28;45507;-76
2021/09/19 09:03:40;;;;;;;;;16.33;15.00;;;;;20.10;60.01;100976.50;5011256;28;54868;-74
2021/09/19 09:06:08;;;;;;;;;16.67;16.33;;;;;20.14;59.44;100973.69;5015135;28;53381;-75
2021/09/19 09:08:33;;;;;;;;;17.00;16.67;;;;;20.17;59.43;100975.41;4997611;28;45396;-74
2021/09/19 09:11:04;;;;;;;;;15.00;14.67;;;;;20.20;59.89;100983.38;5016821;28;45321;-75
2021/09/19 09:13:31;;;;;;;;;18.67;16.33;;;;;20.24;59.53;100986.84;5018754;28;46998;-75
2021/09/19 09:16:00;;;;;;;;;19.33;17.00;;;;;20.29;59.51;100980.44;5015455;28;45415;-74
2021/09/19 09:18:36;;;;;;;;;20.67;16.00;;;;;20.32;59.26;100972.31;5015458;28;45534;-72
2021/09/19 09:21:25;;;;;;;;;15.00;13.67;;;;;20.40;59.42;100980.16;5014759;28;45562;-74
2021/09/19 09:23:55;;;;;;;;;17.33;15.33;;;;;20.38;59.13;100990.91;5011770;28;47517;-74
2021/09/19 09:26:37;;;;;;;;;18.00;16.33;;;;;20.38;60.10;100977.50;5015142;28;45348;-74
2021/09/19 09:29:09;;;;;;;;;17.33;16.67;;;;;20.46;59.31;100982.72;5015732;28;45552;-76
2021/09/19 09:31:45;;;;;;;;;17.33;16.67;;;;;20.47;59.28;100979.09;5021141;28;45575;-74
2021/09/19 09:34:14;;;;;;;;;18.33;18.33;;;;;20.55;59.36;100984.25;5015797;28;46314;-74
2021/09/19 09:36:52;;;;;;;;;14.33;14.33;;;;;20.64;59.17;100986.69;5014920;28;45393;-74
2021/09/19 09:39:30;;;;;;;;;16.00;14.33;;;;;20.74;59.31;100985.50;5007821;28;45431;-73
2021/09/19 09:42:07;;;;;;;;;15.33;14.00;;;;;20.78;58.57;100986.31;5014202;28;45676;-74
2021/09/19 09:44:34;;;;;;;;;17.67;15.67;;;;;20.88;58.35;100979.75;5015119;28;46242;-74
2021/09/19 09:47:01;;;;;;;;;16.00;13.67;;;;;20.94;58.15;100979.56;5014229;28;45501;-74
2021/09/19 09:49:49;;;;;;;;;15.00;14.00;;;;;20.99;58.47;100984.78;5016156;28;45623;-75
2021/09/19 09:52:17;;;;;;;;;15.67;14.67;;;;;21.02;57.69;100985.56;5010484;28;45351;-76
2021/09/19 09:54:53;;;;;;;;;14.33;14.33;;;;;21.00;57.38;100986.56;5016591;28;45453;-76
2021/09/19 09:57:34;;;;;;;;;18.33;15.33;;;;;21.01;58.43;100982.94;5014932;28;45497;-75
2021/09/19 10:00:20;;;;;;;;;14.00;14.00;;;;;21.08;57.53;100987.19;4996683;28;45390;-77
2021/09/19 10:02:48;;;;;;;;;15.67;15.67;;;;;21.11;57.59;100993.34;5014445;28;45688;-74
2021/09/19 10:05:14;;;;;;;;;13.67;12.67;;;;;21.14;57.17;100995.94;5015191;28;46588;-73
2021/09/19 10:07:40;;;;;;;;;17.33;16.00;;;;;21.17;57.55;100984.22;4997610;28;45608;-74
2021/09/19 10:10:08;;;;;;;;;16.00;14.33;;;;;21.27;58.24;100996.44;5014648;28;45451;-74
2021/09/19 10:12:33;;;;;;;;;15.67;15.67;;;;;21.36;57.22;100998.91;4996628;28;45405;-73
2021/09/19 10:14:59;;;;;;;;;22.00;17.33;;;;;21.43;57.36;100996.91;5018887;28;45960;-74
2021/09/19 10:17:27;;;;;;;;;16.33;16.33;;;;;21.44;56.80;100988.78;5014313;28;45321;-74
2021/09/19 10:19:52;;;;;;;;;17.33;14.00;;;;;21.56;56.55;101006.31;5014670;28;45353;-74
2021/09/19 10:22:26;;;;;;;;;14.00;12.33;;;;;21.65;57.00;101002.47;4997422;28;45520;-74
2021/09/19 10:24:51;;;;;;;;;17.00;17.00;;;;;21.71;56.82;100987.00;5019708;28;46714;-73
2021/09/19 10:27:23;;;;;;;;;16.00;16.00;;;;;21.82;56.14;100993.84;4976906;28;45458;-74
2021/09/19 10:29:55;;;;;;;;;16.00;16.00;;;;;21.86;56.63;100977.56;5017905;28;45583;-74
2021/09/19 10:32:45;;;;;;;;;16.00;16.00;;;;;21.98;55.18;100987.03;5014778;28;45432;-73
2021/09/19 10:35:18;;;;;;;;;18.33;15.00;;;;;22.07;55.64;100996.59;5015174;28;46796;-74
2021/09/19 10:38:06;;;;;;;;;16.33;14.33;;;;;22.12;55.58;100995.56;5014119;28;45365;-73
2021/09/19 10:40:37;;;;;;;;;19.00;13.33;;;;;22.19;55.74;100993.53;5008041;28;45337;-75
2021/09/19 10:43:07;;;;;;;;;27.33;26.67;;;;;22.27;55.57;100995.97;5015035;28;46196;-74
2021/09/19 10:45:51;;;;;;;;;16.67;16.67;;;;;22.33;55.83;101006.50;5016534;28;47565;-74
2021/09/19 10:48:16;;;;;;;;;20.00;16.67;;;;;22.39;55.35;100998.22;5010768;28;45670;-73
2021/09/19 10:50:43;;;;;;;;;16.33;13.67;;;;;22.45;55.31;100995.31;5014408;28;45479;-73
2021/09/19 10:53:12;;;;;;;;;14.00;12.00;;;;;22.49;55.36;100997.84;5013683;28;45385;-73
2021/09/19 10:55:50;;;;;;;;;17.00;15.33;;;;;22.53;55.11;100995.00;5009312;28;47402;-73
2021/09/19 10:58:32;;;;;;;;;27.00;27.00;;;;;22.56;54.34;101003.88;5003021;28;45424;-73
2021/09/19 11:01:14;;;;;;;;;17.33;17.33;;;;;22.67;54.57;101001.66;5012794;28;45530;-73
2021/09/19 11:03:43;;;;;;;;;16.67;15.33;;;;;22.78;54.47;100997.69;5013842;28;45446;-74
2021/09/19 11:06:22;;;;;;;;;18.00;17.33;;;;;22.85;52.91;100999.22;4996132;28;47248;-73
2021/09/19 11:08:47;;;;;;;;;18.00;18.00;;;;;22.90;54.06;100991.88;5015965;28;45668;-73
2021/09/19 11:11:18;;;;;;;;;16.00;16.00;;;;;23.02;53.91;100995.97;4996865;28;46087;-72